Data for 03/17/2010

Time Sea-Level Adjusted Pressure Absolute Pressure Temperature Relative Humidity Dew Point   
(mb) (inHg) (mb) (inHg) (C) (F) (%) (C) (F)
00:05 1025 30.27 854 25.22 5.8 42.4 37 -7.8 18
00:10 1025 30.27 854 25.22 5.8 42.4 37 -7.8 17.9
00:15 1025 30.27 854 25.22 5.9 42.6 36 -7.9 17.8
00:20 1025 30.27 854 25.22 5.8 42.5 38 -7.6 18.4
00:25 1025 30.27 854 25.22 5.7 42.3 37 -7.8 18
00:30 1025 30.27 854 25.22 5.5 41.9 38 -7.7 18.1
00:35 1025 30.27 854 25.22 5.4 41.6 39 -7.6 18.2
00:40 1025 30.27 854 25.22 5.4 41.7 38 -7.8 17.9
00:45 1025 30.27 854 25.22 5.4 41.8 39 -7.4 18.7
00:50 1025 30.27 854 25.22 4.9 40.9 41 -7.3 18.8
00:55 1025 30.27 854 25.22 5 41.1 39 -7.6 18.3
01:00 1025 30.27 854 25.22 5 41 40 -7.5 18.4
01:05 1025 30.27 854 25.22 5.1 41.1 40 -7.6 18.3
01:10 1025 30.27 854 25.22 5.1 41.2 40 -7.5 18.4
01:15 1025 30.27 854 25.22 5 41 40 -7.4 18.6
01:20 1025 30.27 854 25.22 5 41 39 -7.8 17.9
01:25 1025 30.27 854 25.22 5 41 39 -7.9 17.8
01:30 1025 30.27 854 25.22 5.1 41.1 42 -7 19.5
01:35 1025 30.27 854 25.22 4.5 40.1 42 -7.2 19
01:40 1025 30.27 854 25.22 4.4 39.9 43 -7.2 19
01:45 1025 30.27 854 25.22 4.4 39.9 42 -7.4 18.6
01:50 1025 30.27 854 25.22 4.6 40.3 40 -7.7 18.1
01:55 1025 30.27 854 25.22 4.9 40.8 39 -8.1 17.5
02:00 1025 30.27 854 25.22 5.6 42 35 -8.6 16.6
02:05 1025 30.27 854 25.22 5.9 42.7 34 -8.6 16.5
02:10 1025 30.27 854 25.22 6 42.7 36 -8.1 17.4
02:15 1025 30.27 854 25.22 5.8 42.5 34 -8.9 16
02:20 1025 30.27 854 25.22 6.2 43.2 34 -8.6 16.6
02:25 1025 30.27 854 25.22 6.2 43.1 34 -8.6 16.5
02:30 1025 30.27 854 25.22 6.1 42.9 35 -8.4 17
02:35 1025 30.27 854 25.22 5.7 42.3 36 -8.3 17
02:40 1025 30.27 854 25.22 5.7 42.2 36 -8.2 17.3
02:45 1025 30.27 854 25.22 5.4 41.8 37 -8 17.7
02:50 1025 30.27 854 25.22 5.1 41.2 39 -7.9 17.8
02:55 1025 30.27 854 25.22 5 41 39 -7.9 17.8
03:00 1025 30.27 854 25.22 5.1 41.1 39 -7.9 17.7
03:05 1025 30.27 854 25.22 4.8 40.6 42 -7 19.4
03:10 1025 30.27 854 25.22 4.1 39.4 42 -7.6 18.4
03:15 1024 30.24 854 25.22 4.4 39.8 41 -7.8 17.9
03:20 1024 30.24 854 25.22 4.5 40.1 42 -7.5 18.5
03:25 1024 30.24 854 25.22 4.7 40.5 40 -7.9 17.8
03:30 1024 30.24 854 25.22 5.3 41.5 40 -7.2 19
03:35 1024 30.24 854 25.22 5.2 41.4 37 -8.5 16.8
03:40 1024 30.24 854 25.22 5.7 42.2 36 -8.3 17
03:45 1024 30.24 854 25.22 5.6 42 37 -7.8 17.9
03:50 1024 30.24 854 25.22 5.3 41.6 38 -7.7 18.1
03:55 1024 30.24 854 25.22 5.1 41.2 41 -7 19.3
04:00 1024 30.24 854 25.22 4.5 40.1 43 -7 19.4
04:05 1024 30.24 854 25.22 4.6 40.4 42 -7.2 19.1
04:10 1024 30.24 854 25.22 4.5 40.1 44 -6.8 19.8
04:15 1024 30.24 854 25.22 4.2 39.6 44 -6.9 19.5
04:20 1024 30.24 853 25.19 4.2 39.6 45 -6.7 19.9
04:25 1024 30.24 854 25.22 3.9 39 46 -6.7 20
04:30 1024 30.24 854 25.22 4.1 39.4 41 -8.1 17.5
04:35 1024 30.24 854 25.22 4.6 40.4 39 -8.1 17.5
04:40 1024 30.24 854 25.22 4.7 40.5 41 -7.4 18.7
04:45 1024 30.24 854 25.22 4.2 39.5 44 -7.2 19.1
04:50 1024 30.24 854 25.22 4.2 39.6 44 -6.9 19.6
04:55 1024 30.24 854 25.22 4 39.2 46 -6.7 19.9
05:00 1024 30.24 854 25.22 3.7 38.7 47 -6.5 20.4
05:05 1024 30.24 854 25.22 3.7 38.6 46 -7 19.5
05:10 1024 30.24 854 25.22 3.5 38.3 49 -6.1 21
05:15 1024 30.24 854 25.22 2.8 37 52 -6.2 20.9
05:20 1024 30.24 854 25.22 2.7 36.8 50 -6.7 20
05:25 1024 30.24 853 25.19 2.8 37 49 -6.9 19.5
05:30 1024 30.24 853 25.19 3.1 37.7 46 -7.3 18.9
05:35 1024 30.24 853 25.19 3.3 37.9 48 -6.8 19.7
05:40 1024 30.24 853 25.19 2.6 36.7 50 -6.8 19.8
05:45 1024 30.24 853 25.19 2.5 36.5 49 -7.2 19
05:50 1024 30.24 853 25.19 3 37.4 48 -7.1 19.2
05:55 1024 30.24 853 25.19 3.3 37.9 46 -7.4 18.7
06:00 1024 30.24 853 25.19 3.2 37.8 50 -6.2 20.8
06:05 1024 30.24 853 25.19 2.5 36.6 53 -6.1 21
06:10 1024 30.24 853 25.19 2.2 35.9 54 -6.2 20.8
06:15 1024 30.24 854 25.22 1.8 35.2 55 -6.3 20.6
06:20 1024 30.24 854 25.22 2.2 36 51 -6.8 19.8
06:25 1024 30.24 854 25.22 2.8 37 45 -7.9 17.8
06:30 1024 30.24 854 25.22 3.9 39 43 -7.6 18.4
06:35 1024 30.24 854 25.22 3.4 38.1 46 -7.2 19.1
06:40 1024 30.24 853 25.19 4 39.1 43 -7.5 18.6
06:45 1024 30.24 853 25.19 3.8 38.8 45 -7.1 19.2
06:50 1024 30.24 853 25.19 3.4 38.1 46 -7.1 19.1
06:55 1024 30.24 854 25.22 3.1 37.5 47 -7.1 19.3
07:00 1024 30.24 854 25.22 2.9 37.3 47 -7.2 19.1
07:05 1024 30.24 854 25.22 3 37.4 47 -7.3 18.9
07:10 1024 30.24 853 25.19 2.9 37.2 46 -7.5 18.5
07:15 1024 30.24 854 25.22 3 37.4 46 -7.5 18.4
07:20 1024 30.24 854 25.22 3 37.4 47 -7.3 18.8
07:25 1024 30.24 854 25.22 3.2 37.7 47 -7 19.5
07:30 1024 30.24 854 25.22 3.3 37.9 49 -6.5 20.2
07:35 1024 30.24 854 25.22 2.9 37.2 53 -5.8 21.5
07:40 1024 30.24 853 25.19 2.1 35.8 50 -7.4 18.7
07:45 1024 30.24 853 25.19 2.2 36 55 -5.9 21.3
07:50 1024 30.24 853 25.19 2.1 35.8 51 -7.1 19.2
07:55 1024 30.24 853 25.19 2.2 36 51 -6.8 19.8
08:00 1024 30.24 853 25.19 2 35.7 51 -7.1 19.2
08:05 1024 30.24 853 25.19 2.2 36 51 -6.9 19.7
08:10 1024 30.24 853 25.19 2.3 36.2 50 -7.2 19.1
08:15 1024 30.24 853 25.19 2.8 37 49 -7 19.4
08:20 1024 30.24 853 25.19 2.9 37.2 49 -6.9 19.6
08:25 1024 30.24 853 25.19 3.2 37.8 47 -7.1 19.2
08:30 1024 30.24 853 25.19 3.3 37.9 47 -6.9 19.7
08:35 1024 30.24 853 25.19 3.2 37.7 48 -6.8 19.8
08:40 1024 30.24 853 25.19 3.3 37.9 47 -6.8 19.7
08:45 1024 30.24 853 25.19 3.5 38.4 47 -6.7 20
08:50 1024 30.24 853 25.19 3.7 38.6 46 -7 19.4
08:55 1024 30.24 853 25.19 4.1 39.4 45 -6.9 19.6
09:00 1024 30.24 853 25.19 4.8 40.6 44 -6.5 20.3
09:05 1024 30.24 853 25.19 5.4 41.7 42 -6.5 20.2
09:10 1024 30.24 853 25.19 6.3 43.3 38 -6.9 19.5
09:15 1024 30.24 853 25.19 7 44.6 36 -6.9 19.5
09:20 1024 30.24 853 25.19 7.2 45 36 -6.7 19.9
09:25 1024 30.24 853 25.19 7.4 45.2 36 -6.8 19.8
09:30 1024 30.24 853 25.19 8 46.4 34 -6.9 19.6
09:35 1024 30.24 853 25.19 8.5 47.3 33 -6.9 19.5
09:40 1024 30.24 853 25.19 8.6 47.5 33 -6.7 19.9
09:45 1024 30.24 853 25.19 9 48.2 31 -7 19.4
09:50 1024 30.24 853 25.19 9.4 49 32 -6.6 20.2
09:55 1024 30.24 853 25.19 9.6 49.3 31 -6.8 19.7
10:00 1024 30.24 853 25.19 9.6 49.2 31 -6.8 19.8
10:05 1024 30.24 853 25.19 9.1 48.4 31 -7.2 19
10:10 1024 30.24 853 25.19 9.4 48.9 31 -7 19.4
10:15 1024 30.24 853 25.19 9.6 49.2 30 -7.2 19
10:20 1024 30.24 853 25.19 9.9 49.9 32 -6 21.2
10:25 1024 30.24 853 25.19 9.7 49.5 30 -6.9 19.6
10:30 1024 30.24 853 25.19 10.9 51.5 29 -6.5 20.3
10:35 1024 30.24 853 25.19 11 51.9 29 -6.5 20.3
10:40 1024 30.24 853 25.19 12 53.6 28 -6 21.2
10:45 1024 30.24 853 25.19 11.9 53.4 28 -6.2 20.8
10:50 1024 30.24 853 25.19 11.7 53.1 28 -6 21.1
10:55 1024 30.24 853 25.19 12 53.7 28 -6.1 21.1
11:00 1024 30.24 853 25.19 11.6 52.9 28 -6.2 20.9
11:05 1024 30.24 853 25.19 11.7 53.1 27 -6.5 20.2
11:10 1024 30.24 853 25.19 12.5 54.5 26 -6.3 20.7
11:15 1023 30.21 853 25.19 12.8 55 27 -5.8 21.5
11:20 1023 30.21 853 25.19 12.5 54.5 27 -6 21.1
11:25 1023 30.21 853 25.19 13 55.3 26 -6.3 20.7
11:30 1023 30.21 853 25.19 13.5 56.3 26 -5.8 21.6
11:35 1023 30.21 853 25.19 12.9 55.2 27 -5.7 21.7
11:40 1023 30.21 852 25.16 13.4 56 26 -5.7 21.7
11:45 1023 30.21 852 25.16 13.5 56.4 25 -5.9 21.4
11:50 1023 30.21 852 25.16 13.8 56.8 26 -5.3 22.5
11:55 1023 30.21 852 25.16 14.2 57.6 25 -5.4 22.3
12:00 1023 30.21 852 25.16 15.3 59.6 23 -5.4 22.3
12:05 1023 30.21 852 25.16 15.4 59.7 24 -4.8 23.3
12:10 1023 30.21 852 25.16 16.1 61 23 -4.9 23.1
12:15 1023 30.21 852 25.16 16.5 61.7 23 -4.5 23.9
12:20 1023 30.21 852 25.16 16.5 61.7 23 -4.7 23.5
12:25 1023 30.21 852 25.16 16.6 61.9 24 -3.7 25.3
12:30 1023 30.21 852 25.16 16.9 62.5 23 -4 24.7
12:35 1023 30.21 852 25.16 17.2 62.9 23 -4.2 24.5
12:40 1023 30.21 852 25.16 17.4 63.3 22 -4.2 24.4
12:45 1023 30.21 852 25.16 17.9 64.1 22 -3.8 25.1
12:50 1023 30.21 852 25.16 16.8 62.2 23 -4.3 24.2
12:55 1022 30.18 852 25.16 16.8 62.2 24 -3.9 25
13:00 1022 30.18 852 25.16 17.4 63.2 23 -3.9 24.9
13:05 1022 30.18 852 25.16 17.5 63.4 23 -3.6 25.5
13:10 1022 30.18 851 25.13 17.5 63.5 22 -4.1 24.7
13:15 1022 30.18 851 25.13 17.5 63.5 23 -3.9 24.9
13:20 1022 30.18 851 25.13 17.5 63.6 23 -3.8 25.1
13:25 1022 30.18 851 25.13 17.2 62.9 23 -3.9 24.9
13:30 1022 30.18 851 25.13 17.1 62.7 23 -3.9 24.9
13:35 1022 30.18 851 25.13 16.7 62.1 24 -3.8 25.2
13:40 1022 30.18 851 25.13 16.7 62.1 24 -3.8 25.2
13:45 1022 30.18 851 25.13 16.2 61.1 25 -3.6 25.5
13:50 1022 30.18 851 25.13 15.5 59.8 25 -4.2 24.5
13:55 1022 30.18 851 25.13 15.7 60.2 26 -3.6 25.6
14:00 1022 30.18 851 25.13 15.4 59.8 26 -4 24.7
14:05 1022 30.18 851 25.13 15 58.9 26 -4.1 24.6
14:10 1022 30.18 851 25.13 14.7 58.5 26 -4.6 23.8
14:15 1022 30.18 851 25.13 15.1 59.1 26 -4.1 24.6
14:20 1021 30.15 851 25.13 15.4 59.7 26 -4.1 24.5
14:25 1021 30.15 851 25.13 15.4 59.7 24 -4.7 23.5
14:30 1021 30.15 850 25.1 15.5 60 25 -4.3 24.2
14:35 1021 30.15 850 25.1 15.2 59.4 25 -4.8 23.3
14:40 1021 30.15 850 25.1 15.2 59.3 25 -4.8 23.4
14:45 1021 30.15 850 25.1 15.9 60.7 23 -5.1 22.9
14:50 1021 30.15 850 25.1 16.3 61.3 25 -3.9 24.9
14:55 1021 30.15 850 25.1 15.7 60.3 24 -4.5 23.9
15:00 1021 30.15 850 25.1 15.1 59.3 26 -4.3 24.2
15:05 1021 30.15 850 25.1 15.9 60.7 24 -4.4 24
15:10 1021 30.15 850 25.1 17.2 62.9 25 -3.1 26.4
15:15 1021 30.15 850 25.1 16.9 62.5 24 -3.7 25.3
15:20 1021 30.15 850 25.1 16.9 62.4 22 -4.7 23.6
15:25 1021 30.15 850 25.1 17.3 63.2 22 -4.4 24.1
15:30 1021 30.15 850 25.1 17.4 63.2 23 -3.8 25.1
15:35 1021 30.15 850 25.1 16.6 61.9 25 -3.4 25.9
15:40 1021 30.15 850 25.1 15.5 59.9 27 -3.4 25.9
15:45 1021 30.15 850 25.1 15.7 60.3 26 -3.6 25.5
15:50 1020 30.12 850 25.1 16.3 61.3 25 -3.5 25.6
15:55 1020 30.12 850 25.1 16.4 61.4 24 -4 24.8
16:00 1020 30.12 849 25.07 16 60.7 25 -4.2 24.5
16:05 1020 30.12 849 25.07 16.3 61.3 24 -4.2 24.5
16:10 1020 30.12 849 25.07 15.9 60.7 26 -3.7 25.3
16:15 1020 30.12 849 25.07 16.5 61.7 23 -4.3 24.2
16:20 1020 30.12 849 25.07 17.1 62.8 23 -3.9 25
16:25 1020 30.12 849 25.07 16.3 61.4 24 -4.1 24.7
16:30 1020 30.12 849 25.07 16.8 62.2 26 -2.9 26.8
16:35 1020 30.12 849 25.07 18.1 64.5 22 -4.1 24.7
16:40 1020 30.12 849 25.07 17.7 63.8 21 -4.9 23.2
16:45 1020 30.12 849 25.07 16.9 62.5 23 -4.3 24.3
16:50 1020 30.12 849 25.07 17.1 62.8 25 -2.7 27.1
16:55 1020 30.12 849 25.07 16.1 60.9 25 -3.9 25
17:00 1020 30.12 849 25.07 16.6 61.8 22 -5 23
17:05 1020 30.12 849 25.07 17.3 63.1 22 -4.7 23.6
17:10 1019 30.09 849 25.07 16.9 62.3 22 -4.8 23.3
17:15 1019 30.09 849 25.07 16.9 62.5 20 -5.9 21.4
17:20 1019 30.09 849 25.07 16.5 61.7 21 -5.6 22
17:25 1019 30.09 848 25.04 16.2 61.1 22 -5.3 22.5
17:30 1019 30.09 848 25.04 15.6 60.1 23 -5.2 22.7
17:35 1019 30.09 848 25.04 14.9 58.8 24 -5.4 22.2
17:40 1019 30.09 848 25.04 15 58.9 23 -5.7 21.8
17:45 1019 30.09 848 25.04 15.3 59.6 23 -5.6 21.8
17:50 1019 30.09 848 25.04 15 59.1 24 -5.1 22.7
17:55 1019 30.09 848 25.04 14.9 58.8 25 -5.1 22.9
18:00 1019 30.09 848 25.04 14.9 58.9 26 -4.5 24
18:05 1019 30.09 848 25.04 14.6 58.3 26 -4.7 23.6
18:10 1019 30.09 848 25.04 14.5 58 26 -4.7 23.5
18:15 1019 30.09 848 25.04 14.8 58.6 25 -4.8 23.3
18:20 1019 30.09 848 25.04 15.1 59.1 25 -4.9 23.2
18:25 1019 30.09 848 25.04 15.1 59.2 25 -4.7 23.5
18:30 1019 30.09 848 25.04 15.1 59.1 25 -4.6 23.8
18:35 1019 30.09 848 25.04 14.7 58.4 27 -4.2 24.4
18:40 1019 30.09 848 25.04 14.1 57.4 28 -4.3 24.3
18:45 1019 30.09 848 25.04 13.9 57.1 27 -4.5 23.9
18:50 1019 30.09 848 25.04 13.9 56.9 28 -4.5 23.9
18:55 1019 30.09 848 25.04 13.9 57.1 27 -4.9 23.2
19:00 1019 30.09 848 25.04 14.1 57.4 27 -4.4 24.1
19:05 1019 30.09 848 25.04 14.1 57.3 28 -3.9 25
19:10 1019 30.09 848 25.04 13.9 57 29 -4 24.8
19:15 1019 30.09 848 25.04 13.9 56.9 28 -4.1 24.6
19:20 1019 30.09 848 25.04 13.7 56.7 29 -3.8 25.2
19:25 1019 30.09 848 25.04 13.5 56.4 30 -3.8 25.2
19:30 1019 30.09 848 25.04 13.3 55.9 31 -3.7 25.4
19:35 1019 30.09 848 25.04 12.9 55.3 31 -3.6 25.5
19:40 1019 30.09 848 25.04 12.7 54.8 32 -3.5 25.6
19:45 1019 30.09 848 25.04 12.4 54.3 33 -3.2 26.2
19:50 1019 30.09 848 25.04 12.1 53.8 35 -2.8 26.9
19:55 1019 30.09 848 25.04 11.8 53.2 36 -2.9 26.8
20:00 1019 30.09 848 25.04 11.4 52.6 41 -1.4 29.5
20:05 1019 30.09 848 25.04 10.3 50.6 43 -1.8 28.8
20:10 1019 30.09 848 25.04 9.8 49.6 42 -2.3 27.8
20:15 1019 30.09 848 25.04 9.9 49.8 40 -3.1 26.4
20:20 1019 30.09 848 25.04 10 49.9 43 -2.1 28.3
20:25 1019 30.09 848 25.04 8.7 47.7 48 -1.5 29.3
20:30 1019 30.09 848 25.04 8.4 47.1 45 -2.9 26.7
20:35 1019 30.09 848 25.04 8.6 47.5 46 -2.4 27.7
20:40 1019 30.09 848 25.04 8.5 47.3 46 -2.6 27.4
20:45 1019 30.09 848 25.04 8.8 47.8 46 -2.2 28
20:50 1019 30.09 849 25.07 8.7 47.6 45 -2.6 27.4
20:55 1019 30.09 848 25.04 8.7 47.6 44 -3 26.6
21:00 1019 30.09 848 25.04 8.7 47.7 43 -3 26.6
21:05 1019 30.09 849 25.07 8.8 47.9 44 -2.9 26.9
21:10 1019 30.09 849 25.07 8.9 47.9 42 -3.2 26.2
21:15 1019 30.09 849 25.07 8.9 48 44 -2.7 27.2
21:20 1020 30.12 849 25.07 8.6 47.4 43 -3.2 26.3
21:25 1019 30.09 849 25.07 8.4 47.2 42 -3.6 25.5
21:30 1019 30.09 849 25.07 8.6 47.4 42 -3.6 25.6
21:35 1020 30.12 849 25.07 8.6 47.5 42 -3.5 25.8
21:40 1020 30.12 849 25.07 8.3 47 43 -3.6 25.5
21:45 1020 30.12 849 25.07 8.2 46.7 42 -4 24.8
21:50 1020 30.12 849 25.07 8.2 46.7 41 -4.1 24.5
21:55 1020 30.12 849 25.07 8.2 46.7 43 -3.7 25.4
22:00 1020 30.12 849 25.07 8.2 46.8 44 -3.4 25.8
22:05 1020 30.12 849 25.07 7.7 45.9 49 -2.4 27.7
22:10 1020 30.12 849 25.07 7.2 44.9 51 -2.3 27.9
22:15 1020 30.12 849 25.07 6.7 44 53 -2.2 28
22:20 1020 30.12 849 25.07 6.4 43.5 52 -2.6 27.3
22:25 1020 30.12 849 25.07 6.5 43.6 51 -2.9 26.7
22:30 1020 30.12 849 25.07 6.5 43.7 51 -3 26.6
22:35 1020 30.12 849 25.07 6.4 43.6 52 -2.7 27.1
22:40 1020 30.12 849 25.07 6 42.8 56 -2.1 28.2
22:45 1020 30.12 849 25.07 5.3 41.6 58 -2.2 28
22:50 1020 30.12 849 25.07 4.9 40.9 57 -2.8 27
22:55 1020 30.12 849 25.07 5.4 41.7 53 -3.4 26
23:00 1020 30.12 849 25.07 5.7 42.3 52 -3.3 26.1
23:05 1020 30.12 849 25.07 5.5 42 55 -2.8 27
23:10 1020 30.12 849 25.07 5.2 41.3 55 -3.1 26.5
23:15 1020 30.12 849 25.07 5.1 41.2 55 -3.2 26.3
23:20 1020 30.12 849 25.07 5 41 55 -3.3 26.1
23:25 1020 30.12 849 25.07 4.9 40.8 55 -3.4 25.9
23:30 1020 30.12 849 25.07 4.8 40.7 55 -3.4 25.8
23:35 1020 30.12 850 25.1 4.7 40.4 55 -3.7 25.4
23:40 1020 30.12 850 25.1 4.7 40.4 55 -3.6 25.5
23:45 1020 30.12 850 25.1 4.6 40.2 55 -3.7 25.4
23:50 1020 30.12 850 25.1 4.5 40.1 55 -3.8 25.2
23:55 1021 30.15 850 25.1 4.5 40.2 54 -3.9 25.1
24:00 1021 30.15 850 25.1 4.5 40.2 54 -3.9 25